sensor_id;sensor_type;location;lat;lon;timestamp;pressure;altitude;pressure_sealevel;temperature;humidity
61906;BME280;47863;55.766;37.672;2023-08-20T00:00:18;100338.84;;;22.66;64.79
61906;BME280;47863;55.766;37.672;2023-08-20T00:02:46;100340.75;;;22.65;64.79
61906;BME280;47863;55.766;37.672;2023-08-20T00:05:13;100335.50;;;22.64;64.90
61906;BME280;47863;55.766;37.672;2023-08-20T00:07:39;100333.81;;;22.63;64.86
61906;BME280;47863;55.766;37.672;2023-08-20T00:10:05;100335.72;;;22.62;64.70
61906;BME280;47863;55.766;37.672;2023-08-20T00:12:31;100331.34;;;22.61;64.80
61906;BME280;47863;55.766;37.672;2023-08-20T00:14:59;100328.00;;;22.59;65.00
61906;BME280;47863;55.766;37.672;2023-08-20T00:17:33;100323.59;;;22.58;65.26
61906;BME280;47863;55.766;37.672;2023-08-20T00:19:59;100314.41;;;22.52;65.18
61906;BME280;47863;55.766;37.672;2023-08-20T00:22:25;100321.78;;;22.52;65.41
61906;BME280;47863;55.766;37.672;2023-08-20T00:24:53;100318.66;;;22.48;65.78
61906;BME280;47863;55.766;37.672;2023-08-20T00:27:18;100310.31;;;22.43;65.93
61906;BME280;47863;55.766;37.672;2023-08-20T00:29:44;100305.31;;;22.40;66.03
61906;BME280;47863;55.766;37.672;2023-08-20T00:32:10;100290.38;;;22.24;66.05
61906;BME280;47863;55.766;37.672;2023-08-20T00:34:36;100302.44;;;22.35;66.11
61906;BME280;47863;55.766;37.672;2023-08-20T00:37:02;100306.44;;;22.32;65.98
61906;BME280;47863;55.766;37.672;2023-08-20T00:39:29;100302.50;;;22.28;66.44
61906;BME280;47863;55.766;37.672;2023-08-20T00:41:54;100299.38;;;22.25;66.10
61906;BME280;47863;55.766;37.672;2023-08-20T00:44:20;100286.84;;;22.17;66.38
61906;BME280;47863;55.766;37.672;2023-08-20T00:46:45;100290.19;;;22.19;66.45
61906;BME280;47863;55.766;37.672;2023-08-20T00:49:11;100280.16;;;22.13;66.74
61906;BME280;47863;55.766;37.672;2023-08-20T00:51:37;100293.59;;;22.14;66.82
61906;BME280;47863;55.766;37.672;2023-08-20T00:54:03;100277.28;;;22.08;66.83
61906;BME280;47863;55.766;37.672;2023-08-20T00:56:29;100277.03;;;22.09;66.97
61906;BME280;47863;55.766;37.672;2023-08-20T00:58:55;100273.94;;;22.06;67.18
61906;BME280;47863;55.766;37.672;2023-08-20T01:01:24;100266.03;;;21.97;67.34
61906;BME280;47863;55.766;37.672;2023-08-20T01:03:51;100247.72;;;21.86;67.39
61906;BME280;47863;55.766;37.672;2023-08-20T01:12:19;100261.16;;;22.06;67.41
61906;BME280;47863;55.766;37.672;2023-08-20T01:14:45;100260.28;;;22.06;67.08
61906;BME280;47863;55.766;37.672;2023-08-20T01:17:11;100238.84;;;21.91;67.34
61906;BME280;47863;55.766;37.672;2023-08-20T01:19:36;100252.19;;;21.99;67.53
61906;BME280;47863;55.766;37.672;2023-08-20T01:30:17;100267.13;;;21.96;67.72
61906;BME280;47863;55.766;37.672;2023-08-20T01:32:43;100264.16;;;21.98;67.71
61906;BME280;47863;55.766;37.672;2023-08-20T01:35:13;100261.19;;;21.99;68.12
61906;BME280;47863;55.766;37.672;2023-08-20T01:37:42;100258.03;;;22.03;67.83
61906;BME280;47863;55.766;37.672;2023-08-20T01:40:08;100259.69;;;22.04;67.71
61906;BME280;47863;55.766;37.672;2023-08-20T01:42:39;100228.75;;;21.91;68.44
61906;BME280;47863;55.766;37.672;2023-08-20T01:45:06;100256.31;;;22.08;68.19
61906;BME280;47863;55.766;37.672;2023-08-20T01:47:33;100260.47;;;22.11;67.97
61906;BME280;47863;55.766;37.672;2023-08-20T01:49:58;100254.78;;;22.12;67.91
61906;BME280;47863;55.766;37.672;2023-08-20T01:52:25;100259.78;;;22.15;68.26
61906;BME280;47863;55.766;37.672;2023-08-20T01:54:50;100263.75;;;22.20;68.11
61906;BME280;47863;55.766;37.672;2023-08-20T01:57:16;100273.38;;;22.22;68.12
61906;BME280;47863;55.766;37.672;2023-08-20T01:59:42;100275.28;;;22.22;68.07
61906;BME280;47863;55.766;37.672;2023-08-20T02:02:08;100282.31;;;22.29;68.16
61906;BME280;47863;55.766;37.672;2023-08-20T02:04:33;100282.94;;;22.31;67.94
61906;BME280;47863;55.766;37.672;2023-08-20T02:06:59;100263.75;;;22.20;68.20
61906;BME280;47863;55.766;37.672;2023-08-20T02:09:25;100282.31;;;22.29;68.27
61906;BME280;47863;55.766;37.672;2023-08-20T02:11:51;100283.63;;;22.27;68.13
61906;BME280;47863;55.766;37.672;2023-08-20T02:14:17;100277.94;;;22.28;68.61
61906;BME280;47863;55.766;37.672;2023-08-20T02:16:43;100273.81;;;22.19;68.47
61906;BME280;47863;55.766;37.672;2023-08-20T02:19:13;100274.41;;;22.21;68.45
61906;BME280;47863;55.766;37.672;2023-08-20T02:21:40;100281.13;;;22.25;68.59
61906;BME280;47863;55.766;37.672;2023-08-20T02:24:06;100274.41;;;22.21;68.84
61906;BME280;47863;55.766;37.672;2023-08-20T02:26:31;100283.69;;;22.20;69.03
61906;BME280;47863;55.766;37.672;2023-08-20T02:28:57;100279.13;;;22.14;69.24
61906;BME280;47863;55.766;37.672;2023-08-20T02:31:23;100281.16;;;22.18;69.07
61906;BME280;47863;55.766;37.672;2023-08-20T02:33:49;100278.44;;;22.18;69.12
61906;BME280;47863;55.766;37.672;2023-08-20T02:36:14;100277.38;;;22.20;69.03
61906;BME280;47863;55.766;37.672;2023-08-20T02:38:40;100244.56;;;22.08;69.22
61906;BME280;47863;55.766;37.672;2023-08-20T02:41:06;100255.78;;;22.18;69.38
61906;BME280;47863;55.766;37.672;2023-08-20T02:43:32;100234.16;;;21.98;69.38
61906;BME280;47863;55.766;37.672;2023-08-20T02:45:57;100247.13;;;22.03;69.95
61906;BME280;47863;55.766;37.672;2023-08-20T02:48:23;100222.31;;;21.86;69.87
61906;BME280;47863;55.766;37.672;2023-08-20T02:50:53;100232.19;;;21.87;69.86
61906;BME280;47863;55.766;37.672;2023-08-20T02:53:20;100253.25;;;21.98;69.94
61906;BME280;47863;55.766;37.672;2023-08-20T02:55:46;100256.81;;;21.98;70.15
61906;BME280;47863;55.766;37.672;2023-08-20T02:58:11;100252.56;;;22.03;69.80
61906;BME280;47863;55.766;37.672;2023-08-20T03:00:37;100256.09;;;22.10;69.63
61906;BME280;47863;55.766;37.672;2023-08-20T03:03:03;100235.75;;;22.06;69.73
61906;BME280;47863;55.766;37.672;2023-08-20T03:05:33;100269.16;;;22.26;69.51
61906;BME280;47863;55.766;37.672;2023-08-20T03:07:58;100259.38;;;22.37;69.17
61906;BME280;47863;55.766;37.672;2023-08-20T03:10:24;100258.44;;;22.43;68.81
61906;BME280;47863;55.766;37.672;2023-08-20T03:12:50;100274.53;;;22.70;68.92
61906;BME280;47863;55.766;37.672;2023-08-20T03:15:15;100268.44;;;22.86;68.68
61906;BME280;47863;55.766;37.672;2023-08-20T03:17:41;100273.94;;;22.98;68.20
61906;BME280;47863;55.766;37.672;2023-08-20T03:20:07;100279.97;;;23.07;68.40
61906;BME280;47863;55.766;37.672;2023-08-20T03:22:33;100285.47;;;23.19;68.24
61906;BME280;47863;55.766;37.672;2023-08-20T03:24:58;100285.97;;;23.27;67.95
61906;BME280;47863;55.766;37.672;2023-08-20T03:27:24;100302.25;;;23.34;68.12
61906;BME280;47863;55.766;37.672;2023-08-20T03:29:51;100310.22;;;23.35;67.84
61906;BME280;47863;55.766;37.672;2023-08-20T03:32:17;100315.31;;;23.32;67.85
61906;BME280;47863;55.766;37.672;2023-08-20T03:34:43;100322.09;;;23.29;68.17
61906;BME280;47863;55.766;37.672;2023-08-20T03:37:09;100329.41;;;23.17;68.80
61906;BME280;47863;55.766;37.672;2023-08-20T03:39:34;100314.53;;;22.94;69.09
61906;BME280;47863;55.766;37.672;2023-08-20T03:42:00;100328.91;;;22.90;68.86
61906;BME280;47863;55.766;37.672;2023-08-20T03:44:25;100343.78;;;22.75;69.41
61906;BME280;47863;55.766;37.672;2023-08-20T03:46:51;100339.53;;;22.61;69.87
61906;BME280;47863;55.766;37.672;2023-08-20T03:49:17;100330.50;;;22.42;69.81
61906;BME280;47863;55.766;37.672;2023-08-20T03:51:42;100330.84;;;22.27;70.53
61906;BME280;47863;55.766;37.672;2023-08-20T03:54:09;100324.38;;;22.22;70.65
61906;BME280;47863;55.766;37.672;2023-08-20T03:56:34;100312.91;;;22.13;71.18
61906;BME280;47863;55.766;37.672;2023-08-20T03:59:00;100278.59;;;21.80;71.05
61906;BME280;47863;55.766;37.672;2023-08-20T04:01:26;100311.16;;;22.00;71.07
61906;BME280;47863;55.766;37.672;2023-08-20T04:03:51;100289.16;;;21.95;71.52
61906;BME280;47863;55.766;37.672;2023-08-20T04:06:17;100241.91;;;21.76;71.85
61906;BME280;47863;55.766;37.672;2023-08-20T04:08:42;100237.75;;;21.73;71.90
61906;BME280;47863;55.766;37.672;2023-08-20T04:11:09;100240.66;;;21.78;71.93
61906;BME280;47863;55.766;37.672;2023-08-20T04:13:35;100220.25;;;21.63;72.05
61906;BME280;47863;55.766;37.672;2023-08-20T04:16:00;100228.16;;;21.64;72.72
61906;BME280;47863;55.766;37.672;2023-08-20T04:18:26;100207.50;;;21.56;72.64
61906;BME280;47863;55.766;37.672;2023-08-20T04:20:52;100197.47;;;21.50;72.95
61906;BME280;47863;55.766;37.672;2023-08-20T04:23:19;100182.63;;;21.46;73.10
61906;BME280;47863;55.766;37.672;2023-08-20T04:25:45;100178.03;;;21.40;73.22
61906;BME280;47863;55.766;37.672;2023-08-20T04:28:12;100159.94;;;21.27;73.15
61906;BME280;47863;55.766;37.672;2023-08-20T04:30:38;100189.03;;;21.27;73.40
61906;BME280;47863;55.766;37.672;2023-08-20T04:33:04;100207.97;;;21.22;73.77
61906;BME280;47863;55.766;37.672;2023-08-20T04:35:30;100223.69;;;21.19;74.02
61906;BME280;47863;55.766;37.672;2023-08-20T04:37:56;100232.47;;;21.22;73.90
61906;BME280;47863;55.766;37.672;2023-08-20T04:40:21;100237.31;;;21.19;73.93
61906;BME280;47863;55.766;37.672;2023-08-20T04:42:48;100230.78;;;21.20;73.61
61906;BME280;47863;55.766;37.672;2023-08-20T04:45:13;100220.56;;;21.16;73.70
61906;BME280;47863;55.766;37.672;2023-08-20T04:47:39;100212.34;;;21.23;73.94
61906;BME280;47863;55.766;37.672;2023-08-20T04:50:05;100221.63;;;21.40;73.75
61906;BME280;47863;55.766;37.672;2023-08-20T04:52:34;100235.19;;;21.53;73.50
61906;BME280;47863;55.766;37.672;2023-08-20T04:55:01;100237.81;;;21.67;73.72
61906;BME280;47863;55.766;37.672;2023-08-20T04:57:27;100250.69;;;21.78;73.52
61906;BME280;47863;55.766;37.672;2023-08-20T04:59:53;100228.00;;;21.84;73.40
61906;BME280;47863;55.766;37.672;2023-08-20T05:02:19;100235.59;;;22.01;72.77
61906;BME280;47863;55.766;37.672;2023-08-20T05:04:45;100231.53;;;22.10;73.03
61906;BME280;47863;55.766;37.672;2023-08-20T05:07:10;100221.44;;;22.10;73.04
61906;BME280;47863;55.766;37.672;2023-08-20T05:09:36;100207.13;;;22.15;73.15
61906;BME280;47863;55.766;37.672;2023-08-20T05:12:02;100229.59;;;22.35;72.91
61906;BME280;47863;55.766;37.672;2023-08-20T05:14:28;100208.53;;;22.17;73.33
61906;BME280;47863;55.766;37.672;2023-08-20T05:16:54;100235.50;;;22.32;73.44
61906;BME280;47863;55.766;37.672;2023-08-20T05:19:20;100228.28;;;22.38;73.52
61906;BME280;47863;55.766;37.672;2023-08-20T05:21:46;100229.78;;;22.52;73.71
61906;BME280;47863;55.766;37.672;2023-08-20T05:24:11;100219.53;;;22.66;73.26
61906;BME280;47863;55.766;37.672;2023-08-20T05:26:37;100223.41;;;22.77;72.56
61906;BME280;47863;55.766;37.672;2023-08-20T05:29:03;100214.66;;;22.87;72.82
61906;BME280;47863;55.766;37.672;2023-08-20T05:31:28;100206.81;;;22.90;72.60
61906;BME280;47863;55.766;37.672;2023-08-20T05:33:54;100219.59;;;23.08;72.25
61906;BME280;47863;55.766;37.672;2023-08-20T05:36:19;100225.94;;;23.21;72.13
61906;BME280;47863;55.766;37.672;2023-08-20T05:38:45;100221.19;;;23.28;72.19
61906;BME280;47863;55.766;37.672;2023-08-20T05:41:10;100208.16;;;23.42;71.95
61906;BME280;47863;55.766;37.672;2023-08-20T05:43:36;100180.47;;;23.38;71.73
61906;BME280;47863;55.766;37.672;2023-08-20T05:46:02;100204.63;;;23.65;71.45
61906;BME280;47863;55.766;37.672;2023-08-20T05:48:28;100197.13;;;23.72;71.41
61906;BME280;47863;55.766;37.672;2023-08-20T05:50:54;100195.94;;;23.68;71.27
61906;BME280;47863;55.766;37.672;2023-08-20T05:53:20;100158.72;;;23.55;71.33
61906;BME280;47863;55.766;37.672;2023-08-20T05:55:46;100187.19;;;23.78;71.10
61906;BME280;47863;55.766;37.672;2023-08-20T05:58:11;100185.38;;;23.83;70.97
61906;BME280;47863;55.766;37.672;2023-08-20T06:00:37;100179.91;;;23.83;71.32
61906;BME280;47863;55.766;37.672;2023-08-20T06:03:02;100163.94;;;23.68;71.34
61906;BME280;47863;55.766;37.672;2023-08-20T06:05:29;100167.38;;;23.75;70.84
61906;BME280;47863;55.766;37.672;2023-08-20T06:07:54;100176.81;;;23.91;71.18
61906;BME280;47863;55.766;37.672;2023-08-20T06:10:20;100179.88;;;23.95;70.73
61906;BME280;47863;55.766;37.672;2023-08-20T06:12:46;100178.81;;;23.96;71.06
61906;BME280;47863;55.766;37.672;2023-08-20T06:15:11;100173.34;;;23.96;70.71
61906;BME280;47863;55.766;37.672;2023-08-20T06:17:37;100183.09;;;24.04;70.57
61906;BME280;47863;55.766;37.672;2023-08-20T06:20:03;100177.47;;;24.22;70.27
61906;BME280;47863;55.766;37.672;2023-08-20T06:22:32;100177.16;;;24.47;69.72
61906;BME280;47863;55.766;37.672;2023-08-20T06:24:57;100178.16;;;24.70;69.10
61906;BME280;47863;55.766;37.672;2023-08-20T06:27:23;100174.38;;;24.88;68.42
61906;BME280;47863;55.766;37.672;2023-08-20T06:29:48;100153.06;;;25.07;67.59
61906;BME280;47863;55.766;37.672;2023-08-20T06:32:14;100159.25;;;25.31;67.10
61906;BME280;47863;55.766;37.672;2023-08-20T06:34:40;100164.13;;;25.63;66.48
61906;BME280;47863;55.766;37.672;2023-08-20T06:37:05;100157.34;;;26.26;65.30
61906;BME280;47863;55.766;37.672;2023-08-20T06:39:31;100160.69;;;27.10;63.68
61906;BME280;47863;55.766;37.672;2023-08-20T06:41:56;100143.34;;;27.79;62.52
61906;BME280;47863;55.766;37.672;2023-08-20T06:44:22;100153.59;;;28.52;61.53
61906;BME280;47863;55.766;37.672;2023-08-20T06:46:48;100139.88;;;28.98;60.50
61906;BME280;47863;55.766;37.672;2023-08-20T06:49:14;100131.38;;;29.25;59.98
61906;BME280;47863;55.766;37.672;2023-08-20T06:51:39;100123.91;;;29.46;59.35
61906;BME280;47863;55.766;37.672;2023-08-20T06:54:05;100140.41;;;29.62;59.06
61906;BME280;47863;55.766;37.672;2023-08-20T06:56:33;100142.34;;;29.72;58.76
61906;BME280;47863;55.766;37.672;2023-08-20T06:59:00;100139.22;;;29.99;57.92
61906;BME280;47863;55.766;37.672;2023-08-20T07:01:26;100145.47;;;30.35;57.49
61906;BME280;47863;55.766;37.672;2023-08-20T07:03:52;100144.94;;;30.73;56.62
61906;BME280;47863;55.766;37.672;2023-08-20T07:06:17;100143.50;;;31.20;55.83
61906;BME280;47863;55.766;37.672;2023-08-20T07:08:44;100138.75;;;31.60;54.66
61906;BME280;47863;55.766;37.672;2023-08-20T07:11:10;100146.28;;;32.27;53.36
61906;BME280;47863;55.766;37.672;2023-08-20T07:13:36;100139.53;;;33.09;52.12
61906;BME280;47863;55.766;37.672;2023-08-20T07:16:02;100131.59;;;33.68;50.96
61906;BME280;47863;55.766;37.672;2023-08-20T07:18:28;100141.88;;;34.36;50.13
61906;BME280;47863;55.766;37.672;2023-08-20T07:20:55;100123.97;;;35.02;48.35
61906;BME280;47863;55.766;37.672;2023-08-20T07:23:21;100138.75;;;36.05;47.30
61906;BME280;47863;55.766;37.672;2023-08-20T07:25:46;100142.50;;;36.92;46.17
61906;BME280;47863;55.766;37.672;2023-08-20T07:28:12;100130.47;;;37.36;42.05
61906;BME280;47863;55.766;37.672;2023-08-20T07:30:38;100136.31;;;37.99;42.01
61906;BME280;47863;55.766;37.672;2023-08-20T07:33:05;100130.44;;;38.84;40.85
61906;BME280;47863;55.766;37.672;2023-08-20T07:35:31;100128.88;;;39.29;39.46
61906;BME280;47863;55.766;37.672;2023-08-20T07:37:56;100125.34;;;39.78;39.21
61906;BME280;47863;55.766;37.672;2023-08-20T07:40:22;100135.41;;;39.91;38.61
61906;BME280;47863;55.766;37.672;2023-08-20T07:42:48;100126.97;;;40.28;37.83
61906;BME280;47863;55.766;37.672;2023-08-20T07:45:15;100117.38;;;41.10;37.07
61906;BME280;47863;55.766;37.672;2023-08-20T07:47:40;100118.22;;;41.27;36.04
61906;BME280;47863;55.766;37.672;2023-08-20T07:50:06;100115.53;;;41.62;34.77
61906;BME280;47863;55.766;37.672;2023-08-20T07:52:32;100107.81;;;42.26;33.70
61906;BME280;47863;55.766;37.672;2023-08-20T07:54:58;100127.00;;;42.56;31.55
61906;BME280;47863;55.766;37.672;2023-08-20T07:57:24;100117.44;;;42.80;31.24
61906;BME280;47863;55.766;37.672;2023-08-20T07:59:50;100119.22;;;42.69;30.24
61906;BME280;47863;55.766;37.672;2023-08-20T08:02:16;100113.28;;;42.74;30.40
61906;BME280;47863;55.766;37.672;2023-08-20T08:04:42;100113.28;;;42.93;30.09
61906;BME280;47863;55.766;37.672;2023-08-20T08:07:09;100112.84;;;43.34;30.21
61906;BME280;47863;55.766;37.672;2023-08-20T08:09:35;100116.63;;;43.91;29.43
61906;BME280;47863;55.766;37.672;2023-08-20T08:12:00;100116.47;;;43.81;29.25
61906;BME280;47863;55.766;37.672;2023-08-20T08:14:26;100091.44;;;44.06;28.48
61906;BME280;47863;55.766;37.672;2023-08-20T08:16:52;100105.50;;;45.27;27.06
61906;BME280;47863;55.766;37.672;2023-08-20T08:19:18;100095.69;;;46.21;26.01
61906;BME280;47863;55.766;37.672;2023-08-20T08:21:45;100087.53;;;47.07;24.98
61906;BME280;47863;55.766;37.672;2023-08-20T08:24:12;100097.69;;;47.76;23.94
61906;BME280;47863;55.766;37.672;2023-08-20T08:26:38;100091.44;;;48.46;24.05
61906;BME280;47863;55.766;37.672;2023-08-20T08:29:05;100087.78;;;48.45;22.64
61906;BME280;47863;55.766;37.672;2023-08-20T08:31:31;100091.78;;;48.62;22.14
61906;BME280;47863;55.766;37.672;2023-08-20T08:33:57;100073.66;;;49.09;21.28
61906;BME280;47863;55.766;37.672;2023-08-20T08:36:23;100079.56;;;49.81;20.61
61906;BME280;47863;55.766;37.672;2023-08-20T08:38:53;100077.88;;;50.22;19.82
61906;BME280;47863;55.766;37.672;2023-08-20T08:41:22;100072.28;;;50.49;18.01
61906;BME280;47863;55.766;37.672;2023-08-20T08:43:50;100078.03;;;50.42;19.42
61906;BME280;47863;55.766;37.672;2023-08-20T08:46:16;100069.25;;;50.59;18.85
61906;BME280;47863;55.766;37.672;2023-08-20T08:48:44;100068.63;;;50.75;18.35
61906;BME280;47863;55.766;37.672;2023-08-20T08:51:11;100075.81;;;51.14;18.35
61906;BME280;47863;55.766;37.672;2023-08-20T08:53:38;100055.59;;;51.52;17.79
61906;BME280;47863;55.766;37.672;2023-08-20T08:56:03;100076.97;;;51.88;17.12
61906;BME280;47863;55.766;37.672;2023-08-20T08:58:32;100069.44;;;51.98;17.03
61906;BME280;47863;55.766;37.672;2023-08-20T09:00:58;100073.94;;;51.75;16.98
61906;BME280;47863;55.766;37.672;2023-08-20T09:03:24;100069.78;;;51.80;17.30
61906;BME280;47863;55.766;37.672;2023-08-20T09:05:58;100079.03;;;52.07;16.61
61906;BME280;47863;55.766;37.672;2023-08-20T09:08:32;100080.88;;;52.38;16.11
61906;BME280;47863;55.766;37.672;2023-08-20T09:10:59;100083.13;;;52.66;15.87
61906;BME280;47863;55.766;37.672;2023-08-20T09:13:35;100083.06;;;52.70;15.81
61906;BME280;47863;55.766;37.672;2023-08-20T09:16:11;100089.47;;;52.58;14.96
61906;BME280;47863;55.766;37.672;2023-08-20T09:18:38;100083.56;;;52.65;15.56
61906;BME280;47863;55.766;37.672;2023-08-20T09:21:09;100097.50;;;52.99;15.03
61906;BME280;47863;55.766;37.672;2023-08-20T09:23:36;100091.25;;;53.37;15.08
61906;BME280;47863;55.766;37.672;2023-08-20T09:26:03;100082.75;;;53.50;14.92
61906;BME280;47863;55.766;37.672;2023-08-20T09:28:40;100062.81;;;53.46;13.53
61906;BME280;47863;55.766;37.672;2023-08-20T09:31:06;100073.94;;;53.74;14.98
61906;BME280;47863;55.766;37.672;2023-08-20T09:33:31;100067.50;;;53.86;14.36
61906;BME280;47863;55.766;37.672;2023-08-20T09:35:57;100066.13;;;53.90;14.34
61906;BME280;47863;55.766;37.672;2023-08-20T09:38:23;100048.41;;;53.79;14.04
61906;BME280;47863;55.766;37.672;2023-08-20T09:40:51;100050.88;;;53.94;14.01
61906;BME280;47863;55.766;37.672;2023-08-20T09:43:18;100042.28;;;54.23;14.34
61906;BME280;47863;55.766;37.672;2023-08-20T09:45:46;100052.19;;;54.60;13.67
61906;BME280;47863;55.766;37.672;2023-08-20T09:48:13;100050.69;;;54.68;13.94
61906;BME280;47863;55.766;37.672;2023-08-20T09:50:43;100036.06;;;53.53;13.73
61906;BME280;47863;55.766;37.672;2023-08-20T09:53:42;100037.03;;;52.64;14.61
61906;BME280;47863;55.766;37.672;2023-08-20T09:56:18;100023.53;;;51.88;14.74
61906;BME280;47863;55.766;37.672;2023-08-20T09:58:48;100030.28;;;51.31;15.30
61906;BME280;47863;55.766;37.672;2023-08-20T10:01:15;100029.84;;;50.82;15.49
61906;BME280;47863;55.766;37.672;2023-08-20T10:03:41;100023.66;;;49.94;16.14
61906;BME280;47863;55.766;37.672;2023-08-20T10:06:07;100032.38;;;49.35;16.49
61906;BME280;47863;55.766;37.672;2023-08-20T10:08:33;100036.41;;;48.89;16.74
61906;BME280;47863;55.766;37.672;2023-08-20T10:10:58;100026.63;;;48.16;17.19
61906;BME280;47863;55.766;37.672;2023-08-20T10:13:24;100020.28;;;47.54;17.16
61906;BME280;47863;55.766;37.672;2023-08-20T10:15:50;100024.75;;;47.08;18.19
61906;BME280;47863;55.766;37.672;2023-08-20T10:18:19;100012.81;;;46.35;18.32
61906;BME280;47863;55.766;37.672;2023-08-20T10:20:45;100021.03;;;45.77;18.89
61906;BME280;47863;55.766;37.672;2023-08-20T10:23:13;100016.13;;;45.22;19.07
61906;BME280;47863;55.766;37.672;2023-08-20T10:25:42;100009.84;;;44.24;19.14
61906;BME280;47863;55.766;37.672;2023-08-20T10:28:22;100017.81;;;42.88;20.31
61906;BME280;47863;55.766;37.672;2023-08-20T10:31:07;99998.09;;;41.55;21.17
61906;BME280;47863;55.766;37.672;2023-08-20T10:33:35;99988.50;;;40.49;22.14
61906;BME280;47863;55.766;37.672;2023-08-20T10:36:29;99974.47;;;39.43;22.74
61906;BME280;47863;55.766;37.672;2023-08-20T10:38:54;99983.41;;;38.99;23.65
61906;BME280;47863;55.766;37.672;2023-08-20T10:41:28;99968.53;;;38.86;23.50
61906;BME280;47863;55.766;37.672;2023-08-20T10:43:58;99958.50;;;38.73;23.81
61906;BME280;47863;55.766;37.672;2023-08-20T10:46:24;99974.47;;;38.73;23.51
61906;BME280;47863;55.766;37.672;2023-08-20T10:48:51;99965.56;;;38.58;23.66
61906;BME280;47863;55.766;37.672;2023-08-20T10:51:19;99961.97;;;38.37;23.79
61906;BME280;47863;55.766;37.672;2023-08-20T10:56:55;99963.75;;;37.99;24.63
61906;BME280;47863;55.766;37.672;2023-08-20T10:59:27;99957.59;;;37.64;25.25
61906;BME280;47863;55.766;37.672;2023-08-20T11:01:55;99953.59;;;37.44;25.75
61906;BME280;47863;55.766;37.672;2023-08-20T11:04:25;99946.31;;;37.60;26.61
61906;BME280;47863;55.766;37.672;2023-08-20T11:06:54;99937.91;;;37.81;25.41
61906;BME280;47863;55.766;37.672;2023-08-20T11:09:25;99962.66;;;37.92;25.70
61906;BME280;47863;55.766;37.672;2023-08-20T11:11:52;99961.75;;;37.28;26.50
61906;BME280;47863;55.766;37.672;2023-08-20T11:14:19;99963.59;;;36.50;27.41
61906;BME280;47863;55.766;37.672;2023-08-20T11:16:46;99949.34;;;35.82;28.18
61906;BME280;47863;55.766;37.672;2023-08-20T11:19:12;99950.53;;;35.32;28.45
61906;BME280;47863;55.766;37.672;2023-08-20T11:21:40;99915.00;;;34.58;29.44
61906;BME280;47863;55.766;37.672;2023-08-20T11:24:07;99946.47;;;34.22;30.34
61906;BME280;47863;55.766;37.672;2023-08-20T11:26:38;99939.00;;;33.72;30.51
61906;BME280;47863;55.766;37.672;2023-08-20T11:29:22;99934.31;;;33.31;31.08
61906;BME280;47863;55.766;37.672;2023-08-20T11:31:49;99932.88;;;33.06;31.50
61906;BME280;47863;55.766;37.672;2023-08-20T11:34:15;99915.34;;;32.78;32.15
61906;BME280;47863;55.766;37.672;2023-08-20T11:36:41;99914.69;;;32.53;31.85
61906;BME280;47863;55.766;37.672;2023-08-20T11:39:07;99907.91;;;31.94;33.83
61906;BME280;47863;55.766;37.672;2023-08-20T11:41:36;99901.69;;;31.45;34.87
61906;BME280;47863;55.766;37.672;2023-08-20T11:44:02;99900.25;;;31.23;35.33
61906;BME280;47863;55.766;37.672;2023-08-20T11:46:28;99899.06;;;31.11;35.15
61906;BME280;47863;55.766;37.672;2023-08-20T11:49:01;99897.22;;;31.01;35.78
61906;BME280;47863;55.766;37.672;2023-08-20T11:51:29;99887.63;;;30.93;36.20
61906;BME280;47863;55.766;37.672;2023-08-20T11:53:57;99888.75;;;30.92;36.34
61906;BME280;47863;55.766;37.672;2023-08-20T11:56:22;99886.56;;;30.89;36.41
61906;BME280;47863;55.766;37.672;2023-08-20T11:58:51;99890.25;;;30.79;36.67
61906;BME280;47863;55.766;37.672;2023-08-20T12:01:20;99892.94;;;30.60;37.88
61906;BME280;47863;55.766;37.672;2023-08-20T12:03:45;99905.28;;;30.39;37.92
61906;BME280;47863;55.766;37.672;2023-08-20T12:06:19;99871.59;;;30.02;38.47
61906;BME280;47863;55.766;37.672;2023-08-20T12:08:45;99878.41;;;29.81;39.69
61906;BME280;47863;55.766;37.672;2023-08-20T12:11:10;99894.19;;;29.70;39.78
61906;BME280;47863;55.766;37.672;2023-08-20T12:13:36;99884.94;;;29.45;40.75
61906;BME280;47863;55.766;37.672;2023-08-20T12:16:02;99886.41;;;29.22;41.50
61906;BME280;47863;55.766;37.672;2023-08-20T12:18:27;99889.50;;;29.00;42.70
61906;BME280;47863;55.766;37.672;2023-08-20T12:20:53;99901.97;;;28.82;42.97
61906;BME280;47863;55.766;37.672;2023-08-20T12:23:20;99908.63;;;28.61;43.55
61906;BME280;47863;55.766;37.672;2023-08-20T12:25:50;99895.97;;;28.19;45.02
61906;BME280;47863;55.766;37.672;2023-08-20T12:28:15;99946.63;;;28.02;45.39
61906;BME280;47863;55.766;37.672;2023-08-20T12:30:41;99970.47;;;27.71;45.60
61906;BME280;47863;55.766;37.672;2023-08-20T12:33:07;99976.09;;;27.39;46.17
61906;BME280;47863;55.766;37.672;2023-08-20T12:35:33;99994.34;;;27.07;46.88
61906;BME280;47863;55.766;37.672;2023-08-20T12:38:03;100017.19;;;26.70;47.21
61906;BME280;47863;55.766;37.672;2023-08-20T12:40:29;100045.69;;;26.37;47.45
61906;BME280;47863;55.766;37.672;2023-08-20T12:42:55;100055.31;;;25.90;47.93
61906;BME280;47863;55.766;37.672;2023-08-20T12:45:20;100082.34;;;25.60;48.42
61906;BME280;47863;55.766;37.672;2023-08-20T12:47:46;100072.94;;;24.83;49.76
61906;BME280;47863;55.766;37.672;2023-08-20T12:50:11;100029.75;;;23.99;50.91
61906;BME280;47863;55.766;37.672;2023-08-20T12:52:40;100006.56;;;23.49;52.13
61906;BME280;47863;55.766;37.672;2023-08-20T12:55:06;100010.16;;;23.26;52.77